CST,Max TemperatureF,Mean TemperatureF,Min TemperatureF,Max Dew PointF,MeanDew PointF,Min DewpointF,Max Humidity, Mean Humidity, Min Humidity, Max Sea Level PressureIn, Mean Sea Level PressureIn, Min Sea Level PressureIn, Max VisibilityMiles, Mean VisibilityMiles, Min VisibilityMiles, Max Wind SpeedMPH, Mean Wind SpeedMPH, Max Gust SpeedMPH,PrecipitationIn, CloudCover, Events, WindDirDegrees
2012-11-1,75,60,44,43,36,30,62,44,27,30.05,30.00,29.94,10,10,9,10,6,,0.00,0,,200
2012-11-2,78,63,48,45,39,32,66,49,24,30.00,29.88,29.80,10,10,10,21,11,26,0.00,0,,109
2012-11-3,59,48,37,36,31,27,70,54,41,30.22,30.16,30.02,10,10,10,21,14,25,0.00,0,,9
2012-11-4,66,52,37,36,31,28,75,48,26,30.22,30.14,30.04,10,10,10,20,8,28,0.00,0,,186
2012-11-5,53,44,35,36,33,28,81,62,44,30.16,30.12,30.06,10,10,10,26,11,32,0.00,4,,353
2012-11-6,62,48,35,37,28,19,87,52,24,30.16,30.11,30.07,10,10,4,21,9,28,0.00,2,,305
2012-11-7,60,46,33,28,25,19,56,42,27,30.22,30.13,30.05,10,10,7,12,6,,0.00,0,,116
2012-11-8,73,58,42,46,36,27,63,47,33,30.04,29.90,29.82,10,10,3,25,14,31,0.00,0,,163
2012-11-9,77,65,53,55,51,46,77,58,44,29.83,29.77,29.71,10,10,9,36,18,45,0.00,0,,182
2012-11-10,71,68,59,54,52,46,64,56,52,29.77,29.70,29.60,10,10,5,37,28,47,0.38,2,Thunderstorm,188
2012-11-11,57,42,26,55,26,16,100,72,48,30.28,30.01,29.70,10,10,10,24,16,33,0.30,3,Thunderstorm,326
2012-11-12,48,36,24,25,20,18,80,56,30,30.43,30.38,30.28,10,10,10,17,8,23,0.00,0,,257
2012-11-13,53,42,30,30,27,23,86,59,30,30.42,30.36,30.30,10,10,10,18,10,21,0.01,0,,187
2012-11-14,55,42,30,30,27,25,80,58,31,30.35,30.29,30.22,10,10,10,18,10,23,0.00,0,,159
2012-11-15,55,45,35,34,30,27,75,60,44,30.40,30.29,30.21,10,10,7,10,8,,0.00,0,,124
2012-11-16,60,46,33,37,31,28,81,59,31,30.43,30.38,30.33,10,10,10,13,6,17,0.00,0,,131
2012-11-17,60,46,33,34,29,27,81,54,34,30.34,30.27,30.20,10,10,10,25,12,32,0.00,0,,165
2012-11-18,60,50,39,39,32,27,65,50,36,30.23,30.14,30.05,10,10,10,29,14,33,0.00,1,,170
2012-11-19,68,54,39,46,42,36,87,65,40,30.17,30.12,30.07,10,10,8,22,12,29,0.00,0,,215
2012-11-20,66,50,35,39,36,30,87,59,32,30.27,30.21,30.17,10,10,2,9,4,,0.00,0,,8
2012-11-21,71,56,41,48,41,34,81,57,40,30.21,30.11,29.95,10,10,10,30,14,38,0.00,0,,181
2012-11-22,71,55,39,50,43,30,70,54,37,30.33,30.00,29.85,10,10,10,28,20,36,0.00,0,,250
2012-11-23,41,34,28,30,18,12,70,50,38,30.57,30.47,30.33,10,10,8,28,12,31,0.00,0,,341
2012-11-24,55,40,24,25,19,14,69,46,29,30.40,30.13,29.77,10,10,10,28,13,33,0.00,0,,184
2012-11-25,59,46,33,28,25,19,70,47,29,30.00,29.92,29.88,10,10,10,14,9,20,0.00,0,,68
2012-11-26,44,32,21,27,23,18,86,68,42,30.47,30.23,30.00,10,10,6,26,15,37,0.00,0,,26
2012-11-27,42,28,15,25,20,12,93,71,46,30.46,30.36,30.25,10,9,4,20,7,25,0.00,0,,178
2012-11-28,55,39,23,30,26,18,86,62,38,30.36,30.27,30.12,10,10,10,16,8,21,0.00,0,,162
2012-11-29,62,48,33,43,36,28,87,66,45,30.12,30.03,29.96,10,10,10,20,10,24,0.00,0,,187
2012-11-30,62,50,37,46,40,30,93,73,52,30.10,30.03,29.94,10,9,0,14,7,,0.00,0,,178